Time;durP1;ratioP1;P1;durP2;ratioP2;P2;SDS_P1;SDS_P2;PMS_P1;PMS_P2;Temp;Humidity;BMP_temperature;BMP_pressure;BME280_temperature;BME280_humidity;BME280_pressure;Samples;Min_cycle;Max_cycle;Signal;HPM_P1;HPM_P2
2022/04/24 00:00:38;;;;;;;3.63;1.95;;;9.50;99.90;;;;;;5074653;28;20051;-72
2022/04/24 00:03:04;;;;;;;2.97;1.58;;;9.20;99.90;;;;;;5074607;28;20064;-72
2022/04/24 00:05:30;;;;;;;3.83;1.92;;;9.30;99.90;;;;;;5091354;28;20094;-72
2022/04/24 00:07:56;;;;;;;2.47;2.00;;;9.00;99.90;;;;;;5074560;28;20036;-72
2022/04/24 00:10:22;;;;;;;1.73;1.23;;;9.00;99.90;;;;;;5095301;28;20505;-71
2022/04/24 00:12:48;;;;;;;2.63;1.50;;;9.00;99.90;;;;;;5078669;28;20406;-72
2022/04/24 00:15:15;;;;;;;3.25;1.50;;;9.00;99.90;;;;;;5095578;28;20479;-72
2022/04/24 00:17:40;;;;;;;2.33;1.45;;;8.90;99.90;;;;;;5095508;28;20087;-72
2022/04/24 00:20:06;;;;;;;2.25;1.65;;;8.90;99.90;;;;;;5095118;28;20072;-72
2022/04/24 00:22:32;;;;;;;3.15;2.13;;;8.90;99.90;;;;;;5095118;28;20122;-72
2022/04/24 00:24:58;;;;;;;3.03;1.73;;;8.80;99.90;;;;;;5078145;28;20078;-72
2022/04/24 00:27:23;;;;;;;2.00;1.38;;;8.80;99.90;;;;;;5078362;28;20036;-72
2022/04/24 00:29:49;;;;;;;3.85;1.70;;;8.80;99.90;;;;;;5078476;28;20165;-73
2022/04/24 00:32:15;;;;;;;1.88;1.45;;;9.10;99.90;;;;;;5077912;28;20056;-72
2022/04/24 00:34:41;;;;;;;2.67;1.73;;;8.60;99.90;;;;;;5078107;28;20075;-72
2022/04/24 00:37:07;;;;;;;3.67;1.70;;;8.50;99.90;;;;;;5078003;28;20106;-72
2022/04/24 00:39:33;;;;;;;2.63;1.90;;;8.50;99.90;;;;;;5061318;28;20047;-72
2022/04/24 00:41:59;;;;;;;2.83;1.83;;;8.40;99.90;;;;;;5095065;28;20043;-72
2022/04/24 00:44:26;;;;;;;3.33;1.85;;;8.40;99.90;;;;;;5095000;28;20436;-72
2022/04/24 00:47:13;;;;;;;3.15;1.75;;;8.20;99.90;;;;;;5078060;28;20479;-72
2022/04/24 00:49:41;;;;;;;2.63;1.77;;;8.40;99.90;;;;;;5094976;28;20403;-71
2022/04/24 00:52:07;;;;;;;2.22;1.50;;;8.40;99.90;;;;;;5094428;28;20118;-73
2022/04/24 00:54:33;;;;;;;2.33;1.60;;;8.30;99.90;;;;;;5077766;28;20070;-72
2022/04/24 00:56:59;;;;;;;1.55;1.42;;;8.30;99.90;;;;;;5094578;28;20090;-72
2022/04/24 00:59:25;;;;;;;1.70;1.23;;;8.30;99.90;;;;;;5077849;28;20036;-72
2022/04/24 01:01:51;;;;;;;2.40;1.80;;;8.60;99.90;;;;;;5094429;28;20120;-72
2022/04/24 01:04:18;;;;;;;2.10;1.73;;;8.20;99.90;;;;;;5077492;28;20032;-72
2022/04/24 01:06:44;;;;;;;3.15;1.55;;;8.70;99.90;;;;;;5077473;28;20039;-72
2022/04/24 01:09:21;;;;;;;5.45;1.65;;;8.60;99.90;;;;;;5060826;28;20044;-72
2022/04/24 01:11:49;;;;;;;4.00;2.03;;;8.40;99.90;;;;;;5094131;28;20047;-72
2022/04/24 01:14:16;;;;;;;2.97;1.70;;;8.70;99.90;;;;;;5094090;28;20126;-72
2022/04/24 01:16:43;;;;;;;1.90;1.65;;;8.20;99.90;;;;;;5077253;28;20040;-73
2022/04/24 01:19:09;;;;;;;3.00;1.40;;;8.70;99.90;;;;;;5093996;28;20079;-73
2022/04/24 01:21:35;;;;;;;2.17;1.50;;;8.30;99.90;;;;;;5093089;28;20085;-73
2022/04/24 01:24:06;;;;;;;2.58;2.00;;;8.40;99.90;;;;;;5093924;28;20040;-72
2022/04/24 01:26:35;;;;;;;2.08;1.58;;;8.10;99.90;;;;;;5093942;28;20032;-72
2022/04/24 01:29:03;;;;;;;4.05;1.77;;;8.10;99.90;;;;;;5076962;28;20052;-72
2022/04/24 01:31:29;;;;;;;3.17;1.65;;;8.40;99.90;;;;;;5060655;28;20044;-73
2022/04/24 01:33:54;;;;;;;2.53;1.55;;;8.30;99.90;;;;;;5094064;28;20514;-72
2022/04/24 01:36:20;;;;;;;2.75;1.58;;;8.30;99.90;;;;;;5076918;28;20040;-72
2022/04/24 01:38:46;;;;;;;3.28;1.58;;;8.40;99.90;;;;;;5060421;28;20032;-72
2022/04/24 01:41:12;;;;;;;3.97;2.15;;;8.20;99.90;;;;;;5077065;28;20097;-72
2022/04/24 01:43:38;;;;;;;3.17;1.88;;;7.80;99.90;;;;;;5093622;28;20036;-72
2022/04/24 01:46:08;;;;;;;3.03;1.98;;;8.00;99.90;;;;;;5093549;28;20040;-72
2022/04/24 01:48:34;;;;;;;2.63;2.08;;;8.30;99.90;;;;;;5093401;28;20048;-72
2022/04/24 01:51:04;;;;;;;3.83;1.95;;;8.20;99.90;;;;;;5093340;28;20040;-72
2022/04/24 01:53:30;;;;;;;2.75;1.83;;;7.90;99.90;;;;;;5093417;28;20043;-72
2022/04/24 01:55:57;;;;;;;3.47;2.03;;;7.80;99.90;;;;;;5093703;28;20028;-73
2022/04/24 01:58:24;;;;;;;2.70;1.60;;;8.10;99.90;;;;;;5093336;28;20051;-73
2022/04/24 02:00:50;;;;;;;3.20;1.95;;;8.10;99.90;;;;;;5076702;28;20119;-73
2022/04/24 02:03:16;;;;;;;3.33;2.15;;;8.10;99.90;;;;;;5093262;28;20098;-73
2022/04/24 02:05:41;;;;;;;2.28;1.65;;;7.80;99.90;;;;;;5076293;28;20040;-73
2022/04/24 02:08:07;;;;;;;3.78;2.10;;;8.10;99.90;;;;;;5076205;28;20123;-73
2022/04/24 02:10:33;;;;;;;4.15;2.25;;;7.70;99.90;;;;;;5093127;28;20067;-73
2022/04/24 02:12:58;;;;;;;2.20;1.33;;;7.90;99.90;;;;;;5093482;28;20047;-73
2022/04/24 02:15:24;;;;;;;3.47;2.00;;;8.00;99.90;;;;;;5093089;28;20096;-73
2022/04/24 02:17:50;;;;;;;2.92;1.75;;;7.40;99.90;;;;;;5059556;28;20452;-73
2022/04/24 02:20:16;;;;;;;3.40;1.60;;;8.20;99.90;;;;;;5093008;28;20076;-73
2022/04/24 02:22:41;;;;;;;3.70;1.83;;;8.00;99.90;;;;;;5093143;28;20043;-73
2022/04/24 02:25:07;;;;;;;2.20;1.58;;;7.60;99.90;;;;;;5075972;28;20036;-73
2022/04/24 02:27:34;;;;;;;3.88;1.90;;;7.70;99.90;;;;;;5092877;28;20128;-73
2022/04/24 02:30:00;;;;;;;4.40;1.63;;;8.00;99.90;;;;;;5092737;28;20072;-73
2022/04/24 02:32:26;;;;;;;2.55;1.48;;;7.90;99.90;;;;;;5075625;28;20047;-73
2022/04/24 02:34:51;;;;;;;2.20;1.90;;;7.60;99.90;;;;;;5075804;28;20051;-73
2022/04/24 02:37:17;;;;;;;3.33;1.63;;;7.70;99.90;;;;;;5092917;28;20040;-73
2022/04/24 02:39:43;;;;;;;1.95;1.20;;;8.00;99.90;;;;;;5059233;28;20044;-72
2022/04/24 02:42:09;;;;;;;2.72;1.75;;;7.60;99.90;;;;;;5092584;28;20044;-73
2022/04/24 02:44:34;;;;;;;2.83;1.42;;;7.80;99.90;;;;;;5075829;28;20128;-72
2022/04/24 02:47:01;;;;;;;4.18;2.22;;;7.90;99.90;;;;;;5092456;28;20056;-72
2022/04/24 02:49:27;;;;;;;2.10;1.77;;;7.50;99.90;;;;;;5075641;28;20123;-72
2022/04/24 02:51:53;;;;;;;2.72;1.77;;;7.50;99.90;;;;;;5075480;28;20068;-73
2022/04/24 02:54:18;;;;;;;2.85;1.92;;;7.40;99.90;;;;;;5092487;28;20028;-72
2022/04/24 02:56:44;;;;;;;5.18;2.35;;;7.40;99.90;;;;;;5075803;28;20040;-73
2022/04/24 02:59:11;;;;;;;2.10;1.67;;;7.70;99.90;;;;;;5075447;28;20048;-73
2022/04/24 03:01:38;;;;;;;3.63;1.77;;;7.40;99.90;;;;;;5075991;28;20544;-73
2022/04/24 03:04:05;;;;;;;2.42;1.45;;;7.70;99.90;;;;;;5092439;28;20058;-73
2022/04/24 03:06:30;;;;;;;2.05;1.55;;;7.60;99.90;;;;;;5092235;28;20131;-72
2022/04/24 03:08:56;;;;;;;3.97;1.83;;;7.60;99.90;;;;;;5092458;28;20127;-73
2022/04/24 03:11:22;;;;;;;4.68;2.00;;;7.50;99.90;;;;;;5058924;28;20047;-72
2022/04/24 03:13:48;;;;;;;1.45;1.02;;;7.30;99.90;;;;;;5075210;28;20074;-72
2022/04/24 03:16:13;;;;;;;3.05;1.08;;;7.50;99.90;;;;;;5075003;28;20039;-73
2022/04/24 03:18:40;;;;;;;4.25;2.08;;;7.70;99.90;;;;;;5058327;28;20119;-72
2022/04/24 03:21:06;;;;;;;3.40;1.95;;;7.10;99.90;;;;;;5091728;28;20122;-72
2022/04/24 03:23:32;;;;;;;2.65;1.67;;;7.10;99.90;;;;;;5091847;28;20078;-73
2022/04/24 03:25:58;;;;;;;7.97;2.50;;;7.00;99.90;;;;;;5091795;28;20066;-73
2022/04/24 03:28:23;;;;;;;2.75;1.48;;;7.50;99.90;;;;;;5091778;28;20051;-73
2022/04/24 03:30:49;;;;;;;3.28;1.65;;;7.40;99.90;;;;;;5091528;28;20376;-73
2022/04/24 03:33:15;;;;;;;3.22;1.73;;;6.90;99.90;;;;;;5075200;28;20043;-73
2022/04/24 03:35:40;;;;;;;3.92;1.88;;;7.20;99.90;;;;;;5091677;28;20514;-73
2022/04/24 03:38:06;;;;;;;2.88;1.40;;;7.00;99.90;;;;;;5058152;28;20070;-73
2022/04/24 03:40:32;;;;;;;3.70;1.73;;;7.40;99.90;;;;;;5091613;28;20040;-73
2022/04/24 03:42:57;;;;;;;4.28;2.05;;;8.00;99.90;;;;;;5057559;28;20601;-73
2022/04/24 03:45:23;;;;;;;1.48;1.27;;;7.50;99.90;;;;;;5074766;28;20043;-72
2022/04/24 03:47:50;;;;;;;3.67;1.98;;;7.00;99.90;;;;;;5075038;28;20044;-73
2022/04/24 03:50:16;;;;;;;3.47;2.33;;;7.40;99.90;;;;;;5075167;28;20506;-73
2022/04/24 03:52:41;;;;;;;2.60;1.60;;;7.80;99.90;;;;;;5074655;28;20487;-73
2022/04/24 03:55:08;;;;;;;2.67;1.67;;;7.00;99.90;;;;;;5091516;28;20071;-73
2022/04/24 03:57:38;;;;;;;2.22;1.80;;;7.00;99.90;;;;;;5091820;28;20051;-72
2022/04/24 04:00:05;;;;;;;3.15;1.83;;;7.00;99.90;;;;;;5091548;28;20141;-73
2022/04/24 04:02:31;;;;;;;2.63;1.65;;;6.90;99.90;;;;;;5058116;28;20667;-73
2022/04/24 04:04:57;;;;;;;4.65;1.38;;;7.30;99.90;;;;;;5075005;28;20557;-73
2022/04/24 04:07:23;;;;;;;3.55;1.77;;;6.90;99.90;;;;;;5074564;28;20044;-72
2022/04/24 04:09:49;;;;;;;2.22;1.55;;;7.50;99.90;;;;;;5074636;28;20119;-73
2022/04/24 04:12:15;;;;;;;3.05;1.85;;;7.10;99.90;;;;;;5091273;28;20506;-73
2022/04/24 04:14:41;;;;;;;3.55;1.67;;;7.00;99.90;;;;;;5091369;28;20044;-73
2022/04/24 04:17:08;;;;;;;3.03;1.58;;;7.00;99.90;;;;;;5091328;28;20089;-73
2022/04/24 04:19:34;;;;;;;2.05;1.55;;;7.10;99.90;;;;;;5091299;28;20039;-72
2022/04/24 04:22:00;;;;;;;3.83;2.03;;;7.10;99.90;;;;;;5074376;28;20036;-72
2022/04/24 04:24:26;;;;;;;2.70;1.65;;;7.10;99.90;;;;;;5091336;28;20039;-73
2022/04/24 04:26:51;;;;;;;4.07;1.92;;;7.10;99.90;;;;;;5074363;28;20063;-72
2022/04/24 04:29:17;;;;;;;2.30;1.60;;;7.40;99.90;;;;;;5074346;28;20488;-73
2022/04/24 04:31:43;;;;;;;3.55;1.77;;;7.00;99.90;;;;;;5074208;28;20087;-73
2022/04/24 04:34:08;;;;;;;4.50;1.20;;;7.50;99.90;;;;;;5091144;28;20510;-73
2022/04/24 04:36:34;;;;;;;3.25;1.52;;;7.40;99.90;;;;;;5074318;28;20043;-73
2022/04/24 04:39:00;;;;;;;2.22;1.35;;;7.70;99.90;;;;;;5074514;28;20046;-73
2022/04/24 04:41:26;;;;;;;5.10;1.70;;;6.90;99.90;;;;;;5074211;28;20127;-72
2022/04/24 04:43:51;;;;;;;5.18;2.00;;;6.90;99.90;;;;;;5074658;28;20050;-73
2022/04/24 04:46:17;;;;;;;4.20;2.17;;;7.10;99.90;;;;;;5091056;28;20377;-73
2022/04/24 04:48:43;;;;;;;3.58;1.35;;;8.10;99.90;;;;;;5074221;28;20052;-73
2022/04/24 04:51:08;;;;;;;2.97;2.05;;;7.00;99.90;;;;;;5091041;28;20558;-72
2022/04/24 04:53:34;;;;;;;3.28;1.67;;;7.40;99.90;;;;;;5091170;28;20476;-72
2022/04/24 04:56:00;;;;;;;2.30;1.42;;;7.10;99.90;;;;;;5076014;28;20036;-73
2022/04/24 04:58:26;;;;;;;3.17;1.92;;;6.90;99.90;;;;;;5077950;28;20453;-73
2022/04/24 05:00:52;;;;;;;2.65;1.40;;;7.80;99.90;;;;;;5077577;28;20407;-73
2022/04/24 05:03:17;;;;;;;1.88;1.55;;;7.20;99.90;;;;;;5077627;28;20436;-72
2022/04/24 05:05:43;;;;;;;4.10;1.98;;;7.10;99.90;;;;;;5094352;28;20403;-72
2022/04/24 05:08:09;;;;;;;5.65;2.20;;;7.20;99.90;;;;;;5094221;28;20044;-73
2022/04/24 05:10:34;;;;;;;2.70;1.70;;;7.40;99.90;;;;;;5077550;28;20036;-73
2022/04/24 05:13:00;;;;;;;2.03;1.45;;;7.40;99.90;;;;;;5094184;28;20044;-73
2022/04/24 05:15:25;;;;;;;3.35;1.75;;;7.60;99.90;;;;;;5077338;28;20502;-73
2022/04/24 05:17:52;;;;;;;2.97;1.35;;;7.60;99.90;;;;;;5077329;28;20181;-73
2022/04/24 05:20:18;;;;;;;2.58;1.35;;;7.30;99.90;;;;;;5077441;28;20047;-72
2022/04/24 05:22:44;;;;;;;5.32;1.88;;;7.70;99.90;;;;;;5094692;28;20395;-73
2022/04/24 05:25:11;;;;;;;5.95;2.50;;;7.90;99.90;;;;;;5093990;28;20043;-72
2022/04/24 05:27:37;;;;;;;3.33;1.90;;;7.90;99.90;;;;;;5094143;28;20036;-73
2022/04/24 05:30:08;;;;;;;2.67;1.40;;;7.90;99.90;;;;;;5093869;28;20039;-73
2022/04/24 05:32:48;;;;;;;2.97;1.80;;;7.60;99.90;;;;;;5093615;28;20060;-73
2022/04/24 05:35:15;;;;;;;3.55;1.67;;;7.60;99.90;;;;;;5093826;28;20097;-72
2022/04/24 05:37:40;;;;;;;2.95;1.83;;;8.00;99.90;;;;;;5094002;28;20618;-72
2022/04/24 05:40:07;;;;;;;3.30;1.85;;;7.90;99.90;;;;;;5093625;28;20040;-72
2022/04/24 05:42:53;;;;;;;3.28;1.58;;;7.90;99.90;;;;;;5060115;28;20441;-72
2022/04/24 05:45:22;;;;;;;3.15;1.50;;;7.90;99.90;;;;;;5093626;28;20044;-72
2022/04/24 05:47:49;;;;;;;3.90;1.75;;;7.90;99.90;;;;;;5093558;28;20044;-72
2022/04/24 05:50:14;;;;;;;4.53;2.20;;;8.00;99.90;;;;;;5076707;28;20036;-72
2022/04/24 05:52:41;;;;;;;3.90;1.77;;;8.30;99.90;;;;;;5076651;28;20040;-72
2022/04/24 05:55:07;;;;;;;4.43;2.05;;;8.20;99.90;;;;;;5093387;28;20067;-72
2022/04/24 05:57:34;;;;;;;4.47;1.80;;;8.20;99.90;;;;;;5076808;28;20051;-72
2022/04/24 06:00:00;;;;;;;3.50;1.90;;;8.20;99.90;;;;;;5093325;28;20043;-72
2022/04/24 06:02:26;;;;;;;4.75;2.10;;;8.60;99.90;;;;;;5076736;28;20487;-72
2022/04/24 06:04:53;;;;;;;3.00;1.80;;;8.70;99.90;;;;;;5093323;28;20054;-72
2022/04/24 06:07:19;;;;;;;4.55;2.20;;;8.70;99.90;;;;;;5092872;28;20043;-73
2022/04/24 06:09:44;;;;;;;3.65;1.90;;;9.30;99.90;;;;;;5093465;28;20043;-72
2022/04/24 06:12:10;;;;;;;3.55;1.90;;;9.00;99.90;;;;;;5093232;28;20078;-72
2022/04/24 06:14:36;;;;;;;4.35;1.35;;;8.90;99.90;;;;;;5076481;28;20082;-72
2022/04/24 06:17:03;;;;;;;3.17;1.55;;;8.80;99.90;;;;;;5076234;28;20044;-72
2022/04/24 06:19:29;;;;;;;2.90;1.50;;;8.80;99.90;;;;;;5093144;28;20488;-72
2022/04/24 06:21:55;;;;;;;2.95;1.73;;;9.00;99.90;;;;;;5093100;28;20436;-70
2022/04/24 06:24:20;;;;;;;2.45;1.85;;;8.90;99.90;;;;;;5075873;28;20136;-72
2022/04/24 06:26:46;;;;;;;6.03;2.08;;;9.50;99.90;;;;;;5075945;28;20039;-71
2022/04/24 06:29:13;;;;;;;3.28;1.88;;;9.50;99.90;;;;;;5075790;28;20464;-72
2022/04/24 06:31:39;;;;;;;2.50;1.17;;;9.40;99.90;;;;;;5075887;28;20093;-72
2022/04/24 06:34:05;;;;;;;4.38;2.03;;;9.50;99.90;;;;;;5092621;28;20048;-72
2022/04/24 06:36:31;;;;;;;3.67;1.60;;;9.20;99.90;;;;;;5075746;28;20059;-72
2022/04/24 06:38:57;;;;;;;5.15;2.42;;;9.40;99.90;;;;;;5092606;28;20530;-71
2022/04/24 06:41:22;;;;;;;3.70;2.08;;;9.60;99.90;;;;;;5075951;28;20491;-71
2022/04/24 06:43:48;;;;;;;4.93;2.22;;;9.50;99.90;;;;;;5092649;28;20131;-71
2022/04/24 06:46:14;;;;;;;3.15;1.73;;;9.40;99.90;;;;;;5092388;28;20036;-72
2022/04/24 06:48:39;;;;;;;2.75;1.73;;;9.60;99.90;;;;;;5075347;28;20098;-72
2022/04/24 06:51:05;;;;;;;4.40;1.60;;;10.00;99.90;;;;;;5075398;28;20040;-70
2022/04/24 06:53:31;;;;;;;3.90;1.55;;;9.70;99.90;;;;;;5092303;28;20047;-70
2022/04/24 06:55:56;;;;;;;4.53;1.90;;;9.90;99.90;;;;;;5092314;28;20032;-71
2022/04/24 06:58:24;;;;;;;2.08;1.60;;;9.90;99.90;;;;;;5092054;28;20048;-69
2022/04/24 07:00:50;;;;;;;2.53;1.65;;;10.00;99.90;;;;;;5092022;28;20051;-70
2022/04/24 07:03:18;;;;;;;1.55;1.05;;;10.30;99.90;;;;;;5075042;28;20040;-71
2022/04/24 07:05:44;;;;;;;2.50;1.45;;;10.00;99.90;;;;;;5074897;28;20036;-71
2022/04/24 07:08:10;;;;;;;3.35;1.33;;;10.10;99.90;;;;;;5091721;28;20054;-70
2022/04/24 07:10:37;;;;;;;4.68;2.08;;;10.10;99.90;;;;;;5091842;28;20089;-71
2022/04/24 07:13:03;;;;;;;1.98;1.13;;;10.50;99.90;;;;;;5075202;28;20106;-72
2022/04/24 07:15:34;;;;;;;2.17;1.38;;;10.50;99.90;;;;;;5074950;28;20075;-71
2022/04/24 07:18:01;;;;;;;2.70;1.60;;;11.20;99.90;;;;;;5090970;28;20040;-71
2022/04/24 07:20:29;;;;;;;1.88;1.05;;;10.70;99.90;;;;;;5075027;28;20044;-72
2022/04/24 07:23:04;;;;;;;1.27;0.70;;;10.90;99.90;;;;;;5091878;28;20100;-71
2022/04/24 07:25:40;;;;;;;2.33;1.00;;;10.70;99.90;;;;;;5076213;28;20039;-72
2022/04/24 07:28:08;;;;;;;2.33;0.98;;;11.60;99.90;;;;;;5091609;28;20040;-72
2022/04/24 07:30:33;;;;;;;3.38;1.63;;;11.00;99.90;;;;;;5091581;28;20032;-73
2022/04/24 07:33:00;;;;;;;2.00;0.93;;;10.70;99.90;;;;;;5074679;28;20154;-72
2022/04/24 07:35:31;;;;;;;1.13;0.80;;;11.00;99.90;;;;;;5091578;28;20038;-72
2022/04/24 07:37:57;;;;;;;2.45;1.10;;;11.10;99.90;;;;;;5091508;28;20075;-70
2022/04/24 07:40:26;;;;;;;1.85;1.20;;;10.90;99.90;;;;;;5091408;28;20048;-72
2022/04/24 07:43:02;;;;;;;0.88;0.80;;;11.60;99.90;;;;;;5092007;28;20510;-71
2022/04/24 07:45:34;;;;;;;2.92;1.67;;;11.50;99.90;;;;;;5074555;28;20123;-72
2022/04/24 07:48:01;;;;;;;1.80;0.80;;;11.80;99.90;;;;;;5091244;28;20051;-74
2022/04/24 07:50:33;;;;;;;1.73;0.85;;;12.10;99.90;;;;;;5074446;28;20097;-73
2022/04/24 07:53:00;;;;;;;0.70;0.63;;;12.30;99.90;;;;;;5091611;28;20040;-73
2022/04/24 07:55:26;;;;;;;1.73;0.90;;;12.30;99.90;;;;;;5091283;28;20124;-75
2022/04/24 07:57:54;;;;;;;1.63;0.90;;;12.40;99.90;;;;;;5074435;28;20519;-72
2022/04/24 08:00:21;;;;;;;1.67;0.80;;;12.50;99.90;;;;;;5091173;28;20070;-73
2022/04/24 08:03:01;;;;;;;3.40;1.17;;;12.70;99.90;;;;;;5091470;28;20048;-72
2022/04/24 08:05:36;;;;;;;1.67;0.98;;;12.70;99.90;;;;;;5091194;28;20048;-72
2022/04/24 08:08:07;;;;;;;1.00;0.75;;;12.80;99.90;;;;;;5091273;28;20055;-72
2022/04/24 08:10:34;;;;;;;;;;;12.90;99.90;;;;;;5091549;28;20388;-72
2022/04/24 08:13:04;;;;;;;1.02;0.57;;;12.80;99.90;;;;;;5091116;28;20020;-73
2022/04/24 08:15:30;;;;;;;2.47;1.40;;;12.80;99.90;;;;;;5074266;28;20046;-72
2022/04/24 08:17:56;;;;;;;1.25;0.70;;;12.90;99.90;;;;;;5091341;28;20047;-72
2022/04/24 08:20:22;;;;;;;0.68;0.60;;;12.90;99.90;;;;;;5091058;28;20040;-71
2022/04/24 08:22:50;;;;;;;1.02;0.80;;;13.00;99.90;;;;;;5057376;28;20050;-71
2022/04/24 08:25:19;;;;;;;1.30;0.60;;;13.40;99.90;;;;;;5090906;28;20075;-72
2022/04/24 08:27:45;;;;;;;0.63;0.57;;;13.30;99.90;;;;;;5090956;28;20116;-72
2022/04/24 08:30:12;;;;;;;0.90;0.70;;;13.30;99.90;;;;;;5076314;28;20075;-72
2022/04/24 08:32:39;;;;;;;1.55;0.95;;;13.50;99.90;;;;;;5078038;28;20060;-71
2022/04/24 08:35:06;;;;;;;0.93;0.80;;;13.60;99.90;;;;;;5094763;28;20093;-72
2022/04/24 08:37:32;;;;;;;2.45;0.80;;;13.70;99.90;;;;;;5094674;28;20122;-72
2022/04/24 08:39:58;;;;;;;3.88;1.08;;;13.90;99.90;;;;;;5094597;28;20147;-71
2022/04/24 08:42:24;;;;;;;2.22;1.05;;;13.90;99.90;;;;;;5094582;28;20040;-71
2022/04/24 08:44:56;;;;;;;1.52;1.08;;;14.00;99.90;;;;;;5077681;28;20043;-71
2022/04/24 08:47:23;;;;;;;2.30;1.05;;;14.10;99.90;;;;;;5094755;28;20127;-70
2022/04/24 08:49:52;;;;;;;1.17;0.80;;;14.20;99.90;;;;;;5094591;28;20040;-73
2022/04/24 08:52:20;;;;;;;2.63;0.88;;;14.40;99.90;;;;;;5094614;28;20458;-71
2022/04/24 08:54:46;;;;;;;1.25;0.85;;;14.30;99.60;;;;;;5061069;28;20068;-71
2022/04/24 08:57:12;;;;;;;1.58;1.00;;;14.30;99.10;;;;;;5077974;28;20036;-71
2022/04/24 08:59:39;;;;;;;1.67;0.95;;;14.30;99.50;;;;;;5093803;28;20048;-72
2022/04/24 09:02:06;;;;;;;1.48;0.70;;;14.20;98.50;;;;;;5094495;28;20063;-73
2022/04/24 09:04:36;;;;;;;0.95;0.57;;;14.40;99.20;;;;;;5094692;28;20415;-73
2022/04/24 09:07:04;;;;;;;1.00;0.73;;;14.40;99.00;;;;;;5094623;28;20050;-73
2022/04/24 09:09:38;;;;;;;2.42;1.40;;;14.40;99.30;;;;;;5094309;28;20039;-72
2022/04/24 09:12:24;;;;;;;1.85;1.00;;;14.40;98.70;;;;;;5077446;28;20152;-72
2022/04/24 09:14:54;;;;;;;1.73;0.82;;;14.30;98.70;;;;;;5094570;28;20485;-71
2022/04/24 09:17:24;;;;;;;3.40;1.63;;;14.40;98.60;;;;;;5094206;28;20039;-71
2022/04/24 09:19:51;;;;;;;1.80;1.00;;;14.50;98.30;;;;;;5094190;28;20048;-70
2022/04/24 09:22:17;;;;;;;2.30;1.35;;;14.60;98.50;;;;;;5077413;28;20044;-70
2022/04/24 09:24:49;;;;;;;1.67;0.85;;;14.60;98.80;;;;;;5093992;28;20119;-70
2022/04/24 09:27:28;;;;;;;1.50;0.93;;;14.70;98.50;;;;;;5094091;28;20075;-70
2022/04/24 09:30:03;;;;;;;1.33;0.70;;;14.80;98.00;;;;;;5093825;28;20123;-72
2022/04/24 09:32:31;;;;;;;1.75;1.17;;;14.80;98.50;;;;;;5093747;28;20052;-71
2022/04/24 09:34:58;;;;;;;1.55;1.25;;;14.70;97.80;;;;;;5077290;28;20040;-70
2022/04/24 09:37:25;;;;;;;1.80;1.10;;;14.70;97.60;;;;;;5076823;28;20050;-71
2022/04/24 09:39:55;;;;;;;4.07;0.90;;;14.70;97.80;;;;;;5093948;28;20098;-73
2022/04/24 09:42:21;;;;;;;0.60;0.60;;;14.70;97.80;;;;;;5075927;28;20507;-72
2022/04/24 09:44:51;;;;;;;3.00;1.90;;;14.70;97.70;;;;;;5093530;28;20047;-70
2022/04/24 09:47:23;;;;;;;6.05;1.10;;;14.70;97.60;;;;;;5093481;28;20143;-70
2022/04/24 09:49:50;;;;;;;1.27;0.82;;;14.70;97.40;;;;;;5076623;28;20115;-71
2022/04/24 09:52:24;;;;;;;1.27;0.95;;;14.70;96.80;;;;;;5093626;28;20036;-72
2022/04/24 09:54:54;;;;;;;1.38;1.15;;;14.80;96.90;;;;;;5077007;28;20118;-70
2022/04/24 09:57:23;;;;;;;1.80;0.77;;;15.00;97.60;;;;;;5093676;28;20395;-74
2022/04/24 09:59:53;;;;;;;1.35;0.65;;;15.00;96.00;;;;;;5093541;28;20128;-71
2022/04/24 10:02:20;;;;;;;2.78;0.98;;;15.00;96.00;;;;;;5093177;28;20169;-71
2022/04/24 10:04:47;;;;;;;0.63;0.63;;;15.20;95.80;;;;;;5093478;28;20530;-72
2022/04/24 10:07:15;;;;;;;2.13;0.90;;;15.20;95.70;;;;;;5059722;28;20040;-71
2022/04/24 10:09:46;;;;;;;2.80;0.98;;;15.40;99.90;;;;;;5076201;28;20047;-71
2022/04/24 10:12:15;;;;;;;0.80;0.70;;;15.50;99.30;;;;;;5093141;28;20126;-71
2022/04/24 10:14:44;;;;;;;2.50;1.33;;;15.60;97.50;;;;;;5094222;28;20043;-72
2022/04/24 10:17:48;;;;;;;3.33;0.90;;;15.50;99.90;;;;;;5093257;28;20125;-72
2022/04/24 10:20:46;;;;;;;2.47;1.35;;;15.60;99.90;;;;;;5067282;28;20052;-72
2022/04/24 10:23:12;;;;;;;0.52;0.52;;;15.70;99.90;;;;;;5093186;28;20491;-71
2022/04/24 10:25:41;;;;;;;1.60;0.90;;;15.50;99.90;;;;;;5092865;28;20083;-73
2022/04/24 10:28:17;;;;;;;1.05;0.88;;;15.60;99.90;;;;;;5092760;28;20134;-72
2022/04/24 10:30:56;;;;;;;1.80;1.00;;;15.60;99.90;;;;;;5093010;28;20040;-70
2022/04/24 10:33:24;;;;;;;1.13;0.63;;;15.90;99.90;;;;;;5092562;28;20063;-73
2022/04/24 10:35:56;;;;;;;1.15;0.70;;;15.80;99.90;;;;;;5092873;28;20043;-74
2022/04/24 10:38:23;;;;;;;1.45;0.80;;;15.90;99.90;;;;;;5075532;28;20067;-73
2022/04/24 10:41:02;;;;;;;2.13;1.15;;;16.00;99.90;;;;;;5075623;28;20040;-72
2022/04/24 10:43:46;;;;;;;2.33;0.77;;;16.00;99.90;;;;;;5092850;28;20048;-72
2022/04/24 10:46:34;;;;;;;3.65;1.30;;;16.00;99.90;;;;;;5092824;28;20040;-73
2022/04/24 10:49:18;;;;;;;1.25;0.63;;;16.10;99.90;;;;;;5076060;28;20078;-73
2022/04/24 10:51:56;;;;;;;1.92;1.35;;;16.10;99.90;;;;;;5092721;28;20048;-73
2022/04/24 10:54:39;;;;;;;1.45;0.93;;;16.30;99.90;;;;;;5075745;28;20093;-73
2022/04/24 10:57:20;;;;;;;1.08;0.75;;;16.10;99.90;;;;;;5092829;28;20399;-73
2022/04/24 10:59:55;;;;;;;1.95;0.75;;;16.20;99.90;;;;;;5092790;28;20534;-72
2022/04/24 11:02:30;;;;;;;4.50;0.80;;;16.20;99.90;;;;;;5092432;28;20072;-73
2022/04/24 11:05:07;;;;;;;1.25;0.75;;;16.00;99.90;;;;;;5092198;28;20036;-72
2022/04/24 11:07:33;;;;;;;2.35;0.90;;;15.90;99.90;;;;;;5075337;28;20062;-77
2022/04/24 11:10:10;;;;;;;1.15;0.70;;;15.50;99.90;;;;;;5092079;28;20040;-76
2022/04/24 11:12:38;;;;;;;2.67;1.05;;;15.60;99.90;;;;;;5092171;28;20039;-73
2022/04/24 11:15:14;;;;;;;0.50;0.47;;;15.80;99.90;;;;;;5092372;28;20044;-71
2022/04/24 11:17:41;;;;;;;0.63;0.52;;;15.80;99.90;;;;;;5092346;28;20079;-71
2022/04/24 11:20:13;;;;;;;0.57;0.57;;;15.70;99.90;;;;;;5092020;28;20043;-72
2022/04/24 11:22:55;;;;;;;1.73;1.02;;;15.80;99.90;;;;;;5092351;28;20487;-72
2022/04/24 11:25:24;;;;;;;0.80;0.60;;;15.90;99.90;;;;;;5093267;28;20044;-72
2022/04/24 11:27:59;;;;;;;2.13;1.05;;;16.20;98.70;;;;;;5091855;28;20446;-73
2022/04/24 11:30:32;;;;;;;1.55;0.90;;;16.10;97.60;;;;;;5091962;28;20040;-74
2022/04/24 11:33:06;;;;;;;1.83;0.65;;;16.20;97.70;;;;;;5091860;28;20103;-74
2022/04/24 11:35:38;;;;;;;1.45;0.93;;;16.00;97.80;;;;;;5074993;28;20146;-73
2022/04/24 11:38:13;;;;;;;1.65;1.02;;;16.00;97.50;;;;;;5092070;28;20083;-73
2022/04/24 11:40:48;;;;;;;1.13;0.80;;;15.90;97.40;;;;;;5075401;28;20044;-76
2022/04/24 11:43:17;;;;;;;1.75;0.70;;;15.80;95.70;;;;;;5075825;28;20044;-74
2022/04/24 11:51:18;;;;;;;0.40;0.40;;;16.30;97.00;;;;;;5092071;28;20127;-72
2022/04/24 11:53:45;;;;;;;0.60;0.50;;;16.50;97.00;;;;;;5091738;28;20036;-73
2022/04/24 11:56:12;;;;;;;1.15;0.70;;;16.40;97.40;;;;;;5075389;28;20461;-72
2022/04/24 11:58:40;;;;;;;1.50;0.82;;;16.30;97.10;;;;;;5091850;28;20101;-72
2022/04/24 12:01:08;;;;;;;1.33;0.80;;;16.50;97.70;;;;;;5091676;28;20048;-72
2022/04/24 12:03:36;;;;;;;1.38;0.70;;;16.60;98.20;;;;;;5091755;28;20040;-73
2022/04/24 12:06:10;;;;;;;1.60;0.93;;;16.50;97.50;;;;;;5095225;28;20040;-73
2022/04/24 12:08:44;;;;;;;1.20;0.93;;;16.40;98.60;;;;;;5095992;28;20544;-73
2022/04/24 12:11:22;;;;;;;0.95;0.80;;;15.90;97.80;;;;;;5095838;28;20055;-71
2022/04/24 12:14:06;;;;;;;2.35;1.02;;;15.70;98.90;;;;;;5095933;28;20044;-72
2022/04/24 12:16:32;;;;;;;1.10;0.73;;;15.60;98.70;;;;;;5078769;28;20036;-71
2022/04/24 12:18:59;;;;;;;3.05;1.10;;;15.40;99.90;;;;;;5079026;28;20117;-71
2022/04/24 12:21:26;;;;;;;1.95;0.85;;;15.50;99.90;;;;;;5078507;28;20044;-72
2022/04/24 12:23:53;;;;;;;1.80;0.90;;;15.70;99.90;;;;;;5095519;28;20044;-72
2022/04/24 12:26:20;;;;;;;2.22;1.00;;;15.60;99.90;;;;;;5095634;28;20164;-71
2022/04/24 12:28:47;;;;;;;3.15;1.50;;;15.70;99.90;;;;;;5095506;28;20052;-71
2022/04/24 12:31:24;;;;;;;1.02;0.77;;;15.60;99.90;;;;;;5078523;28;20040;-72
2022/04/24 12:33:52;;;;;;;0.55;0.55;;;15.80;99.90;;;;;;5095702;28;20048;-72
2022/04/24 12:36:19;;;;;;;1.02;0.70;;;15.70;99.90;;;;;;5095442;28;20076;-72
2022/04/24 12:39:06;;;;;;;1.70;1.08;;;15.90;99.90;;;;;;5078357;28;20083;-73
2022/04/24 12:41:35;;;;;;;2.50;1.40;;;15.80;99.90;;;;;;5095082;28;20048;-72
2022/04/24 12:44:06;;;;;;;0.88;0.70;;;15.80;99.90;;;;;;5094936;28;20046;-72
2022/04/24 12:46:33;;;;;;;1.90;1.30;;;15.80;99.90;;;;;;5077936;28;20130;-72
2022/04/24 12:48:59;;;;;;;1.05;0.68;;;15.70;99.90;;;;;;5094861;28;20044;-72
2022/04/24 12:51:25;;;;;;;1.75;0.73;;;15.70;99.90;;;;;;5094741;28;20384;-70
2022/04/24 12:53:53;;;;;;;2.40;1.33;;;15.30;99.90;;;;;;5078237;28;20165;-71
2022/04/24 12:56:18;;;;;;;1.27;1.00;;;15.50;99.90;;;;;;5094626;28;20439;-72
2022/04/24 12:58:45;;;;;;;1.75;0.98;;;15.80;99.90;;;;;;5094891;28;20131;-71
2022/04/24 13:01:14;;;;;;;1.83;0.98;;;15.80;99.90;;;;;;5077842;28;20137;-70
2022/04/24 13:03:40;;;;;;;1.90;1.05;;;15.70;99.90;;;;;;5077929;28;20086;-71